Time;durP1;ratioP1;P1;durP2;ratioP2;P2;SDS_P1;SDS_P2;PMS_P1;PMS_P2;Temp;Humidity;BMP_temperature;BMP_pressure;BME280_temperature;BME280_humidity;BME280_pressure;Samples;Min_cycle;Max_cycle;Signal;HPM_P1;HPM_P2
2021/09/04 00:00:31;;;;;;;;;;;;;;;;;;4956667;28;20313;-89
2021/09/04 00:03:00;;;;;;;;;;;;;;;;;;4948504;28;19925;-89
2021/09/04 00:05:30;;;;;;;;;;;;;;;;;;4941052;28;20415;-87
2021/09/04 00:07:58;;;;;;;;;;;;;;;;;;4962879;28;19934;-89
2021/09/04 00:10:29;;;;;;;;;;;;;;;;;;4958815;28;19926;-87
2021/09/04 00:12:58;;;;;;;;;;;;;;;;;;4953954;28;19961;-89
2021/09/04 00:15:30;;;;;;;;;;;;;;;;;;4960189;28;19934;-88
2021/09/04 00:17:59;;;;;;;;;;;;;;;;;;4959562;28;19968;-89
2021/09/04 00:20:27;;;;;;;;;;;;;;;;;;4938862;28;19931;-89
2021/09/04 00:22:57;;;;;;;;;;;;;;;;;;4941018;28;19942;-90
2021/09/04 00:25:25;;;;;;;;;;;;;;;;;;4940642;28;19934;-89
2021/09/04 00:27:55;;;;;;;;;;;;;;;;;;4942831;28;19941;-90
2021/09/04 00:30:23;;;;;;;;;;;;;;;;;;4983194;28;19930;-90
2021/09/04 00:32:52;;;;;;;;;;;;;;;;;;4974120;28;19930;-90
2021/09/04 00:35:20;;;;;;;;;;;;;;;;;;4946092;28;20308;-90
2021/09/04 00:37:48;;;;;;;;;;;;;;;;;;4968489;28;20296;-89
2021/09/04 00:40:18;;;;;;;;;;;;;;;;;;4961971;28;19941;-89
2021/09/04 00:42:46;;;;;;;;;;;;;;;;;;4952515;28;19937;-89
2021/09/04 00:45:15;;;;;;;;;;;;;;;;;;4968001;28;19933;-89
2021/09/04 00:47:51;;;;;;;;;;;;;;;;;;4949096;28;19930;-90
2021/09/04 00:50:20;;;;;;;;;;;;;;;;;;4937671;28;20481;-89
2021/09/04 00:52:48;;;;;;;;;;;;;;;;;;4954098;28;19926;-90
2021/09/04 00:55:18;;;;;;;;;;;;;;;;;;4942054;28;19933;-90
2021/09/04 00:57:47;;;;;;;;;;;;;;;;;;4974006;28;19913;-89
2021/09/04 01:00:15;;;;;;;;;;;;;;;;;;4966530;28;19926;-90
2021/09/04 01:02:45;;;;;;;;;;;;;;;;;;4963857;28;19934;-89
2021/09/04 01:05:15;;;;;;;;;;;;;;;;;;4941845;28;19926;-89
2021/09/04 01:07:44;;;;;;;;;;;;;;;;;;4946468;28;19930;-89
2021/09/04 01:10:14;;;;;;;;;;;;;;;;;;4962732;28;19941;-89
2021/09/04 01:12:45;;;;;;;;;;;;;;;;;;4945478;28;19940;-89
2021/09/04 01:15:13;;;;;;;;;;;;;;;;;;4946402;28;20330;-89
2021/09/04 01:17:41;;;;;;;;;;;;;;;;;;4953732;28;19934;-90
2021/09/04 01:20:10;;;;;;;;;;;;;;;;;;4935967;28;20399;-89
2021/09/04 01:22:39;;;;;;;;;;;;;;;;;;4958397;28;19933;-90
2021/09/04 01:25:08;;;;;;;;;;;;;;;;;;4941550;28;19926;-89
2021/09/04 01:27:38;;;;;;;;;;;;;;;;;;4944603;28;19926;-89
2021/09/04 01:30:07;;;;;;;;;;;;;;;;;;4947361;28;19938;-87
2021/09/04 01:32:35;;;;;;;;;;;;;;;;;;4959410;28;19928;-88
2021/09/04 01:35:04;;;;;;;;;;;;;;;;;;4946962;28;19937;-89
2021/09/04 01:37:33;;;;;;;;;;;;;;;;;;4948202;28;19934;-88
2021/09/04 01:40:02;;;;;;;;;;;;;;;;;;4962194;28;19937;-89
2021/09/04 01:42:31;;;;;;;;;;;;;;;;;;4943094;28;19930;-87
2021/09/04 01:45:01;;;;;;;;;;;;;;;;;;4961384;28;19926;-89
2021/09/04 01:47:29;;;;;;;;;;;;;;;;;;4941833;28;19925;-88
2021/09/04 01:49:58;;;;;;;;;;;;;;;;;;4956477;28;19933;-90
2021/09/04 01:52:26;;;;;;;;;;;;;;;;;;4948128;28;20324;-87
2021/09/04 01:54:54;;;;;;;;;;;;;;;;;;4944106;28;20304;-89
2021/09/04 01:57:23;;;;;;;;;;;;;;;;;;4952947;28;19926;-89
2021/09/04 01:59:51;;;;;;;;;;;;;;;;;;4959836;28;19937;-89
2021/09/04 02:02:21;;;;;;;;;;;;;;;;;;4942328;28;19937;-89
2021/09/04 02:04:49;;;;;;;;;;;;;;;;;;4950206;28;19973;-88
2021/09/04 02:07:17;;;;;;;;;;;;;;;;;;4943277;28;19949;-90
2021/09/04 02:09:46;;;;;;;;;;;;;;;;;;4949250;28;19926;-88
2021/09/04 02:12:14;;;;;;;;;;;;;;;;;;4957614;28;19930;-89
2021/09/04 02:14:42;;;;;;;;;;;;;;;;;;4961643;28;19933;-88
2021/09/04 02:17:11;;;;;;;;;;;;;;;;;;4949750;28;19926;-89
2021/09/04 02:19:41;;;;;;;;;;;;;;;;;;4941691;28;20328;-90
2021/09/04 02:22:11;;;;;;;;;;;;;;;;;;4954112;28;20373;-88
2021/09/04 02:24:40;;;;;;;;;;;;;;;;;;4956795;28;19932;-88
2021/09/04 02:27:08;;;;;;;;;;;;;;;;;;4939823;28;19937;-88
2021/09/04 02:29:37;;;;;;;;;;;;;;;;;;4943271;28;19926;-89
2021/09/04 02:32:06;;;;;;;;;;;;;;;;;;4952096;28;19926;-88
2021/09/04 02:34:35;;;;;;;;;;;;;;;;;;4949190;28;20416;-89
2021/09/04 02:37:05;;;;;;;;;;;;;;;;;;4944000;28;20393;-89
2021/09/04 02:39:33;;;;;;;;;;;;;;;;;;4948389;28;20305;-89
2021/09/04 02:42:01;;;;;;;;;;;;;;;;;;4948635;28;19929;-89
2021/09/04 02:44:30;;;;;;;;;;;;;;;;;;4947276;28;20139;-89
2021/09/04 02:47:03;;;;;;;;;;;;;;;;;;4939874;28;19930;-89
2021/09/04 02:49:33;;;;;;;;;;;;;;;;;;4941812;28;19985;-89
2021/09/04 02:52:01;;;;;;;;;;;;;;;;;;4937761;28;20385;-86
2021/09/04 02:54:31;;;;;;;;;;;;;;;;;;4950773;28;19941;-90
2021/09/04 02:56:59;;;;;;;;;;;;;;;;;;4971305;28;19926;-89
2021/09/04 02:59:28;;;;;;;;;;;;;;;;;;4936772;28;19926;-89
2021/09/04 03:01:57;;;;;;;;;;;;;;;;;;4954586;28;19934;-89
2021/09/04 03:04:27;;;;;;;;;;;;;;;;;;4941634;28;19926;-90
2021/09/04 03:06:55;;;;;;;;;;;;;;;;;;4945544;28;19957;-89
2021/09/04 03:09:24;;;;;;;;;;;;;;;;;;4944986;28;20508;-90
2021/09/04 03:11:55;;;;;;;;;;;;;;;;;;4943413;28;19936;-90
2021/09/04 03:14:23;;;;;;;;;;;;;;;;;;4958834;28;20312;-89
2021/09/04 03:16:52;;;;;;;;;;;;;;;;;;4937453;28;20312;-89
2021/09/04 03:19:21;;;;;;;;;;;;;;;;;;4939516;28;19926;-89
2021/09/04 03:21:49;;;;;;;;;;;;;;;;;;4965372;28;19913;-89
2021/09/04 03:24:18;;;;;;;;;;;;;;;;;;4965800;28;19930;-88
2021/09/04 03:26:47;;;;;;;;;;;;;;;;;;4949050;28;19926;-88
2021/09/04 03:29:18;;;;;;;;;;;;;;;;;;4953895;28;19934;-89
2021/09/04 03:31:46;;;;;;;;;;;;;;;;;;4961717;28;19945;-89
2021/09/04 03:34:15;;;;;;;;;;;;;;;;;;4946864;28;20389;-87
2021/09/04 03:36:43;;;;;;;;;;;;;;;;;;4966178;28;19926;-89
2021/09/04 03:39:11;;;;;;;;;;;;;;;;;;4946078;28;19933;-89
2021/09/04 03:41:39;;;;;;;;;;;;;;;;;;4945115;28;20129;-88
2021/09/04 03:44:10;;;;;;;;;;;;;;;;;;4955996;28;19933;-88
2021/09/04 03:46:40;;;;;;;;;;;;;;;;;;4952460;28;20432;-89
2021/09/04 03:49:08;;;;;;;;;;;;;;;;;;4939637;28;19930;-88
2021/09/04 03:51:37;;;;;;;;;;;;;;;;;;4941176;28;19937;-89
2021/09/04 03:54:06;;;;;;;;;;;;;;;;;;4957605;28;19929;-88
2021/09/04 03:56:37;;;;;;;;;;;;;;;;;;4940884;28;19984;-90
2021/09/04 03:59:05;;;;;;;;;;;;;;;;;;4946078;28;20296;-88
2021/09/04 04:01:34;;;;;;;;;;;;;;;;;;4941306;28;19930;-88
2021/09/04 04:04:06;;;;;;;;;;;;;;;;;;4937774;28;19934;-89
2021/09/04 04:06:34;;;;;;;;;;;;;;;;;;4939474;28;19933;-89
2021/09/04 04:09:03;;;;;;;;;;;;;;;;;;4944282;28;19930;-88
2021/09/04 04:11:32;;;;;;;;;;;;;;;;;;4971106;28;20385;-89
2021/09/04 04:14:02;;;;;;;;;;;;;;;;;;4958968;28;19926;-89
2021/09/04 04:16:31;;;;;;;;;;;;;;;;;;4941547;28;19926;-89
2021/09/04 04:19:01;;;;;;;;;;;;;;;;;;4959513;28;20377;-89
2021/09/04 04:21:33;;;;;;;;;;;;;;;;;;4974682;28;19930;-90
2021/09/04 04:24:01;;;;;;;;;;;;;;;;;;4947696;28;19926;-89
2021/09/04 04:26:31;;;;;;;;;;;;;;;;;;4938302;28;19933;-89
2021/09/04 04:28:59;;;;;;;;;;;;;;;;;;4976038;28;20308;-89
2021/09/04 04:31:28;;;;;;;;;;;;;;;;;;4946054;28;19930;-89
2021/09/04 04:33:57;;;;;;;;;;;;;;;;;;4960522;28;19929;-89
2021/09/04 04:36:26;;;;;;;;;;;;;;;;;;4943895;28;20315;-89
2021/09/04 04:38:56;;;;;;;;;;;;;;;;;;4935655;28;20468;-89
2021/09/04 04:41:24;;;;;;;;;;;;;;;;;;4959762;28;19937;-89
2021/09/04 04:43:53;;;;;;;;;;;;;;;;;;4941135;28;19925;-90
2021/09/04 04:46:21;;;;;;;;;;;;;;;;;;4945187;28;20416;-88
2021/09/04 04:48:51;;;;;;;;;;;;;;;;;;4947785;28;19926;-89
2021/09/04 04:51:20;;;;;;;;;;;;;;;;;;4961397;28;19937;-89
2021/09/04 04:53:50;;;;;;;;;;;;;;;;;;4967058;28;19933;-89
2021/09/04 04:56:20;;;;;;;;;;;;;;;;;;4949234;28;20380;-88
2021/09/04 04:58:48;;;;;;;;;;;;;;;;;;4961131;28;19926;-89
2021/09/04 05:01:17;;;;;;;;;;;;;;;;;;4964402;28;20348;-90
2021/09/04 05:03:46;;;;;;;;;;;;;;;;;;4951786;28;19926;-88
2021/09/04 05:06:15;;;;;;;;;;;;;;;;;;4954308;28;19933;-89
2021/09/04 05:08:44;;;;;;;;;;;;;;;;;;4966924;28;20435;-88
2021/09/04 05:11:12;;;;;;;;;;;;;;;;;;4954234;28;19926;-89
2021/09/04 05:13:43;;;;;;;;;;;;;;;;;;4955788;28;20308;-88
2021/09/04 05:16:14;;;;;;;;;;;;;;;;;;4963935;28;19926;-89
2021/09/04 05:18:43;;;;;;;;;;;;;;;;;;4948958;28;20439;-87
2021/09/04 05:21:12;;;;;;;;;;;;;;;;;;4944438;28;19926;-89
2021/09/04 05:23:41;;;;;;;;;;;;;;;;;;4966344;28;20395;-89
2021/09/04 05:26:10;;;;;;;;;;;;;;;;;;4981276;28;19937;-89
2021/09/04 05:28:38;;;;;;;;;;;;;;;;;;4963929;28;19930;-88
2021/09/04 05:31:08;;;;;;;;;;;;;;;;;;4961432;28;20396;-88
2021/09/04 05:33:36;;;;;;;;;;;;;;;;;;4953650;28;19927;-89
2021/09/04 05:36:07;;;;;;;;;;;;;;;;;;4969690;28;19926;-89
2021/09/04 05:38:35;;;;;;;;;;;;;;;;;;4944421;28;20439;-87
2021/09/04 05:41:03;;;;;;;;;;;;;;;;;;4970784;28;19929;-89
2021/09/04 05:43:31;;;;;;;;;;;;;;;;;;4952028;28;19941;-88
2021/09/04 05:46:00;;;;;;;;;;;;;;;;;;4962153;28;19914;-88
2021/09/04 05:48:29;;;;;;;;;;;;;;;;;;4983618;28;19934;-88
2021/09/04 05:50:57;;;;;;;;;;;;;;;;;;4975353;28;19949;-87
2021/09/04 05:53:26;;;;;;;;;;;;;;;;;;4951773;28;19925;-88
2021/09/04 05:55:54;;;;;;;;;;;;;;;;;;4965334;28;19934;-88
2021/09/04 05:58:23;;;;;;;;;;;;;;;;;;4949767;28;20293;-88
2021/09/04 06:00:51;;;;;;;;;;;;;;;;;;4949749;28;20324;-89
2021/09/04 06:03:20;;;;;;;;;;;;;;;;;;4970486;28;20063;-88
2021/09/04 06:05:50;;;;;;;;;;;;;;;;;;4971771;28;19926;-88
2021/09/04 06:08:18;;;;;;;;;;;;;;;;;;4945222;28;19945;-87
2021/09/04 06:10:46;;;;;;;;;;;;;;;;;;4956702;28;19933;-88
2021/09/04 06:13:14;;;;;;;;;;;;;;;;;;4943036;28;19937;-87
2021/09/04 06:15:42;;;;;;;;;;;;;;;;;;4950799;28;19926;-88
2021/09/04 06:18:11;;;;;;;;;;;;;;;;;;4946513;28;19930;-88
2021/09/04 06:20:39;;;;;;;;;;;;;;;;;;4946286;28;19937;-88
2021/09/04 06:23:09;;;;;;;;;;;;;;;;;;4949484;28;19933;-88
2021/09/04 06:25:38;;;;;;;;;;;;;;;;;;4951393;28;20340;-88
2021/09/04 06:28:06;;;;;;;;;;;;;;;;;;4981528;28;19926;-85
2021/09/04 06:30:35;;;;;;;;;;;;;;;;;;4947373;28;19933;-88
2021/09/04 06:33:04;;;;;;;;;;;;;;;;;;4950196;28;19925;-88
2021/09/04 06:35:32;;;;;;;;;;;;;;;;;;4953054;28;19930;-85
2021/09/04 06:38:00;;;;;;;;;;;;;;;;;;4961181;28;19926;-88
2021/09/04 06:40:30;;;;;;;;;;;;;;;;;;4949730;28;19942;-88
2021/09/04 06:42:58;;;;;;;;;;;;;;;;;;4969312;28;19926;-87
2021/09/04 06:45:26;;;;;;;;;;;;;;;;;;4947210;28;19926;-87
2021/09/04 06:47:55;;;;;;;;;;;;;;;;;;4947692;28;19926;-88
2021/09/04 06:50:23;;;;;;;;;;;;;;;;;;4958201;28;19926;-87
2021/09/04 06:52:51;;;;;;;;;;;;;;;;;;4956574;28;19933;-88
2021/09/04 06:55:19;;;;;;;;;;;;;;;;;;4950843;28;19926;-89
2021/09/04 06:57:51;;;;;;;;;;;;;;;;;;4950586;28;19934;-87
2021/09/04 07:00:20;;;;;;;;;;;;;;;;;;4948900;28;19941;-88
2021/09/04 07:02:49;;;;;;;;;;;;;;;;;;4949184;28;19926;-88
2021/09/04 07:05:18;;;;;;;;;;;;;;;;;;4961510;28;19933;-89
2021/09/04 07:07:46;;;;;;;;;;;;;;;;;;4964769;28;19932;-88
2021/09/04 07:10:14;;;;;;;;;;;;;;;;;;4965608;28;19933;-87
2021/09/04 07:12:42;;;;;;;;;;;;;;;;;;4955390;28;20966;-88
2021/09/04 07:15:12;;;;;;;;;;;;;;;;;;4951841;28;20412;-87
2021/09/04 07:17:41;;;;;;;;;;;;;;;;;;4968255;28;19930;-89
2021/09/04 07:20:10;;;;;;;;;;;;;;;;;;4947764;28;19930;-89
2021/09/04 07:22:38;;;;;;;;;;;;;;;;;;4950402;28;19926;-88
2021/09/04 07:25:07;;;;;;;;;;;;;;;;;;4961263;28;19933;-88
2021/09/04 07:27:35;;;;;;;;;;;;;;;;;;4946216;28;19926;-88
2021/09/04 07:30:04;;;;;;;;;;;;;;;;;;4952141;28;19932;-88
2021/09/04 07:32:34;;;;;;;;;;;;;;;;;;4945885;28;19937;-88
2021/09/04 07:35:02;;;;;;;;;;;;;;;;;;4950395;28;19936;-89
2021/09/04 07:37:31;;;;;;;;;;;;;;;;;;4948200;28;20018;-88
2021/09/04 07:39:59;;;;;;;;;;;;;;;;;;4950601;28;20293;-88
2021/09/04 07:42:28;;;;;;;;;;;;;;;;;;4961885;28;19930;-89
2021/09/04 07:44:56;;;;;;;;;;;;;;;;;;4967509;28;19933;-88
2021/09/04 07:47:24;;;;;;;;;;;;;;;;;;4948749;28;19930;-89
2021/09/04 07:49:54;;;;;;;;;;;;;;;;;;4942162;28;19933;-89
2021/09/04 07:52:22;;;;;;;;;;;;;;;;;;4966941;28;19934;-90
2021/09/04 07:54:50;;;;;;;;;;;;;;;;;;4944585;28;20415;-87
2021/09/04 07:57:19;;;;;;;;;;;;;;;;;;4949048;28;19998;-89
2021/09/04 07:59:47;;;;;;;;;;;;;;;;;;4958992;28;19941;-89
2021/09/04 08:02:15;;;;;;;;;;;;;;;;;;4961907;28;19926;-89
2021/09/04 08:04:44;;;;;;;;;;;;;;;;;;4956148;28;19933;-89
2021/09/04 08:07:13;;;;;;;;;;;;;;;;;;4946592;28;19930;-88
2021/09/04 08:09:42;;;;;;;;;;;;;;;;;;4958213;28;19926;-89
2021/09/04 08:12:10;;;;;;;;;;;;;;;;;;4976280;28;19914;-88
2021/09/04 08:14:38;;;;;;;;;;;;;;;;;;4965897;28;19925;-87
2021/09/04 08:17:06;;;;;;;;;;;;;;;;;;4952459;28;19944;-88
2021/09/04 08:19:35;;;;;;;;;;;;;;;;;;4966643;28;19933;-89
2021/09/04 08:22:03;;;;;;;;;;;;;;;;;;4951436;28;19930;-89
2021/09/04 08:24:33;;;;;;;;;;;;;;;;;;4945489;28;19930;-88
2021/09/04 08:27:01;;;;;;;;;;;;;;;;;;4950786;28;20312;-88
2021/09/04 08:29:29;;;;;;;;;;;;;;;;;;4960074;28;19933;-88
2021/09/04 08:31:57;;;;;;;;;;;;;;;;;;4952719;28;19937;-88
2021/09/04 08:34:26;;;;;;;;;;;;;;;;;;4940742;28;19926;-89
2021/09/04 08:36:54;;;;;;;;;;;;;;;;;;4959978;28;20400;-87
2021/09/04 08:39:22;;;;;;;;;;;;;;;;;;4969890;28;19933;-88
2021/09/04 08:41:52;;;;;;;;;;;;;;;;;;4952967;28;19933;-88
2021/09/04 08:44:20;;;;;;;;;;;;;;;;;;4965082;28;19926;-87
2021/09/04 08:46:50;;;;;;;;;;;;;;;;;;4951212;28;19933;-87
2021/09/04 08:49:19;;;;;;;;;;;;;;;;;;4950541;28;21909;-87
2021/09/04 08:51:47;;;;;;;;;;;;;;;;;;4950391;28;19936;-87
2021/09/04 08:54:15;;;;;;;;;;;;;;;;;;4946554;28;19932;-86
2021/09/04 08:56:44;;;;;;;;;;;;;;;;;;4950762;28;19937;-87
2021/09/04 08:59:13;;;;;;;;;;;;;;;;;;4944922;28;19937;-86
2021/09/04 09:01:44;;;;;;;;;;;;;;;;;;4953399;28;20415;-86
2021/09/04 09:04:14;;;;;;;;;;;;;;;;;;4964482;28;19925;-87
2021/09/04 09:06:43;;;;;;;;;;;;;;;;;;4949133;28;19926;-87
2021/09/04 09:09:15;;;;;;;;;;;;;;;;;;4947280;28;21239;-87
2021/09/04 09:11:43;;;;;;;;;;;;;;;;;;4955553;28;19926;-87
2021/09/04 09:14:13;;;;;;;;;;;;;;;;;;4945882;28;19933;-87
2021/09/04 09:16:52;;;;;;;;;;;;;;;;;;4969216;28;19926;-87
2021/09/04 09:19:24;;;;;;;;;;;;;;;;;;4951193;28;20132;-87
2021/09/04 09:21:54;;;;;;;;;;;;;;;;;;4959845;28;19926;-87
2021/09/04 09:24:23;;;;;;;;;;;;;;;;;;4951868;28;20308;-87
2021/09/04 09:26:53;;;;;;;;;;;;;;;;;;4952637;28;19926;-86
2021/09/04 09:29:23;;;;;;;;;;;;;;;;;;4947001;28;19933;-86
2021/09/04 09:31:59;;;;;;;;;;;;;;;;;;4942515;28;19926;-88
2021/09/04 09:34:28;;;;;;;;;;;;;;;;;;4946675;28;19933;-87
2021/09/04 09:36:57;;;;;;;;;;;;;;;;;;4947676;28;19926;-87
2021/09/04 09:39:26;;;;;;;;;;;;;;;;;;4948278;28;19926;-87
2021/09/04 09:41:55;;;;;;;;;;;;;;;;;;4944321;28;19960;-87
2021/09/04 09:44:25;;;;;;;;;;;;;;;;;;4949755;28;19938;-87
2021/09/04 09:46:54;;;;;;;;;;;;;;;;;;4948955;28;20404;-86
2021/09/04 09:49:26;;;;;;;;;;;;;;;;;;4945934;28;19933;-88
2021/09/04 09:51:58;;;;;;;;;;;;;;;;;;4944521;28;19934;-87
2021/09/04 09:54:27;;;;;;;;;;;;;;;;;;4948233;28;19934;-86
2021/09/04 09:56:55;;;;;;;;;;;;;;;;;;4962436;28;20677;-87
2021/09/04 09:59:26;;;;;;;;;;;;;;;;;;4968149;28;19926;-86
2021/09/04 10:01:54;;;;;;;;;;;;;;;;;;4960618;28;19925;-86
2021/09/04 10:04:25;;;;;;;;;;;;;;;;;;4957394;28;19932;-86
2021/09/04 10:06:54;;;;;;;;;;;;;;;;;;4985189;28;19926;-86
2021/09/04 10:09:23;;;;;;;;;;;;;;;;;;4947345;28;19933;-85
2021/09/04 10:11:51;;;;;;;;;;;;;;;;;;4943692;28;19926;-87
2021/09/04 10:14:20;;;;;;;;;;;;;;;;;;4945965;28;19926;-85
2021/09/04 10:16:51;;;;;;;;;;;;;;;;;;4955070;28;20329;-84
2021/09/04 10:19:21;;;;;;;;;;;;;;;;;;4993009;28;19926;-85
2021/09/04 10:21:49;;;;;;;;;;;;;;;;;;4953588;28;20415;-85
2021/09/04 10:24:17;;;;;;;;;;;;;;;;;;4966022;28;19930;-85
2021/09/04 10:26:45;;;;;;;;;;;;;;;;;;4987767;28;20376;-85
2021/09/04 10:29:14;;;;;;;;;;;;;;;;;;4966838;28;19941;-86
2021/09/04 10:31:43;;;;;;;;;;;;;;;;;;4968959;28;19949;-84
2021/09/04 10:34:14;;;;;;;;;;;;;;;;;;4960010;28;19933;-85
2021/09/04 10:36:59;;;;;;;;;;;;;;;;;;4967774;28;19910;-83
2021/09/04 10:39:42;;;;;;;;;;;;;;;;;;4992491;28;19934;-83
2021/09/04 10:42:11;;;;;;;;;;;;;;;;;;4967306;28;19926;-85
2021/09/04 10:44:41;;;;;;;;;;;;;;;;;;4956664;28;19926;-84
2021/09/04 10:47:09;;;;;;;;;;;;;;;;;;4967773;28;19925;-84
2021/09/04 10:49:42;;;;;;;;;;;;;;;;;;4952400;28;19926;-85
2021/09/04 10:52:11;;;;;;;;;;;;;;;;;;4956646;28;19945;-86
2021/09/04 10:55:03;;;;;;;;;;;;;;;;;;4968367;28;19925;-83
2021/09/04 10:57:44;;;;;;;;;;;;;;;;;;4956226;28;19925;-84
2021/09/04 11:00:23;;;;;;;;;;;;;;;;;;4955057;28;20423;-85
2021/09/04 11:02:53;;;;;;;;;;;;;;;;;;4959268;28;19926;-86
2021/09/04 11:05:49;;;;;;;;;;;;;;;;;;4946706;28;19937;-83
2021/09/04 11:08:29;;;;;;;;;;;;;;;;;;4955535;28;19925;-84
2021/09/04 11:11:08;;;;;;;;;;;;;;;;;;4956252;28;19929;-85
2021/09/04 11:13:37;;;;;;;;;;;;;;;;;;4952564;28;19933;-85
2021/09/04 11:16:24;;;;;;;;;;;;;;;;;;4952365;28;19948;-84
2021/09/04 11:18:53;;;;;;;;;;;;;;;;;;4965290;28;19929;-87
2021/09/04 11:21:21;;;;;;;;;;;;;;;;;;4948869;28;19926;-86
2021/09/04 11:23:51;;;;;;;;;;;;;;;;;;4954136;28;19926;-87
2021/09/04 11:26:19;;;;;;;;;;;;;;;;;;4981286;28;19926;-87
2021/09/04 11:28:54;;;;;;;;;;;;;;;;;;4947710;28;19926;-88
2021/09/04 11:31:23;;;;;;;;;;;;;;;;;;4966632;28;19926;-87
2021/09/04 11:33:51;;;;;;;;;;;;;;;;;;4956979;28;20407;-87
2021/09/04 11:36:30;;;;;;;;;;;;;;;;;;4953038;28;19926;-85
2021/09/04 11:39:00;;;;;;;;;;;;;;;;;;4949208;28;20249;-84
2021/09/04 11:41:28;;;;;;;;;;;;;;;;;;4954847;28;19927;-84
2021/09/04 11:43:56;;;;;;;;;;;;;;;;;;4972938;28;20514;-85
2021/09/04 11:46:26;;;;;;;;;;;;;;;;;;4967986;28;19926;-83
2021/09/04 11:48:55;;;;;;;;;;;;;;;;;;4952839;28;19973;-84
2021/09/04 11:51:23;;;;;;;;;;;;;;;;;;4976036;28;19926;-84
2021/09/04 11:54:00;;;;;;;;;;;;;;;;;;4962639;28;19926;-84
2021/09/04 11:56:30;;;;;;;;;;;;;;;;;;4952112;28;19926;-86
2021/09/04 11:59:07;;;;;;;;;;;;;;;;;;4947371;28;19945;-87
2021/09/04 12:01:36;;;;;;;;;;;;;;;;;;4961915;28;20344;-87
2021/09/04 12:04:04;;;;;;;;;;;;;;;;;;4948212;28;20379;-88
2021/09/04 12:06:33;;;;;;;;;;;;;;;;;;4949658;28;20296;-88
2021/09/04 12:09:02;;;;;;;;;;;;;;;;;;4953803;28;19928;-85
2021/09/04 12:11:30;;;;;;;;;;;;;;;;;;4952297;28;19926;-87
2021/09/04 12:13:59;;;;;;;;;;;;;;;;;;4957088;28;19934;-87
2021/09/04 12:16:27;;;;;;;;;;;;;;;;;;4976217;28;19925;-87
2021/09/04 12:18:55;;;;;;;;;;;;;;;;;;4967629;28;19930;-87
2021/09/04 12:21:24;;;;;;;;;;;;;;;;;;4963679;28;19926;-87
2021/09/04 12:23:53;;;;;;;;;;;;;;;;;;4950212;28;19925;-87
2021/09/04 12:26:22;;;;;;;;;;;;;;;;;;4956717;28;19930;-87
2021/09/04 12:28:50;;;;;;;;;;;;;;;;;;4951408;28;20293;-87
2021/09/04 12:31:22;;;;;;;;;;;;;;;;;;4947575;28;19930;-84
2021/09/04 12:33:58;;;;;;;;;;;;;;;;;;4966109;28;19933;-85
2021/09/04 12:36:36;;;;;;;;;;;;;;;;;;4953793;28;19945;-85
2021/09/04 12:39:11;;;;;;;;;;;;;;;;;;4964372;28;19941;-85
2021/09/04 12:41:41;;;;;;;;;;;;;;;;;;4953771;28;19926;-85
2021/09/04 12:44:10;;;;;;;;;;;;;;;;;;4969162;28;19930;-84
2021/09/04 12:46:38;;;;;;;;;;;;;;;;;;4970026;28;20401;-85
2021/09/04 12:49:23;;;;;;;;;;;;;;;;;;4945321;28;19926;-85
2021/09/04 12:52:13;;;;;;;;;;;;;;;;;;4949737;28;19934;-85
2021/09/04 12:54:42;;;;;;;;;;;;;;;;;;4962811;28;19936;-84
2021/09/04 12:57:13;;;;;;;;;;;;;;;;;;4955661;28;19926;-85
2021/09/04 12:59:52;;;;;;;;;;;;;;;;;;4956683;28;20281;-85
2021/09/04 13:02:22;;;;;;;;;;;;;;;;;;4955832;28;19934;-85
2021/09/04 13:04:58;;;;;;;;;;;;;;;;;;4974312;28;20123;-84
2021/09/04 13:07:27;;;;;;;;;;;;;;;;;;4967925;28;19948;-85
2021/09/04 13:09:55;;;;;;;;;;;;;;;;;;4943888;28;19994;-86
2021/09/04 13:12:26;;;;;;;;;;;;;;;;;;4955817;28;20414;-86
2021/09/04 13:14:54;;;;;;;;;;;;;;;;;;4960518;28;19930;-86
2021/09/04 13:17:22;;;;;;;;;;;;;;;;;;4948308;28;19926;-85
2021/09/04 13:19:50;;;;;;;;;;;;;;;;;;4971545;28;20316;-85
2021/09/04 13:22:18;;;;;;;;;;;;;;;;;;4945868;28;19930;-86
2021/09/04 13:24:47;;;;;;;;;;;;;;;;;;4952616;28;19926;-85
2021/09/04 13:27:15;;;;;;;;;;;;;;;;;;4948392;28;19927;-85
2021/09/04 13:29:45;;;;;;;;;;;;;;;;;;4953191;28;20392;-86
2021/09/04 13:32:13;;;;;;;;;;;;;;;;;;4958648;28;19926;-86
2021/09/04 13:34:41;;;;;;;;;;;;;;;;;;4955965;28;20300;-85
2021/09/04 13:37:09;;;;;;;;;;;;;;;;;;4969563;28;19956;-86
2021/09/04 13:39:38;;;;;;;;;;;;;;;;;;4956012;28;20296;-86
2021/09/04 13:42:06;;;;;;;;;;;;;;;;;;4948380;28;19933;-83
2021/09/04 13:44:35;;;;;;;;;;;;;;;;;;4953461;28;20367;-86
2021/09/04 13:47:05;;;;;;;;;;;;;;;;;;4953845;28;19933;-85
2021/09/04 13:49:33;;;;;;;;;;;;;;;;;;4973279;28;19933;-86
2021/09/04 13:52:02;;;;;;;;;;;;;;;;;;4963972;28;20303;-86
2021/09/04 13:54:30;;;;;;;;;;;;;;;;;;4953668;28;19932;-85
2021/09/04 13:56:58;;;;;;;;;;;;;;;;;;4967722;28;19941;-86
2021/09/04 13:59:26;;;;;;;;;;;;;;;;;;4953014;28;19927;-86
2021/09/04 14:01:55;;;;;;;;;;;;;;;;;;4951152;28;19926;-86
2021/09/04 14:04:24;;;;;;;;;;;;;;;;;;4963682;28;19930;-86
2021/09/04 14:06:53;;;;;;;;;;;;;;;;;;4951160;28;19925;-86
2021/09/04 14:09:21;;;;;;;;;;;;;;;;;;4951497;28;19926;-86
2021/09/04 14:11:49;;;;;;;;;;;;;;;;;;4968786;28;19926;-86
2021/09/04 14:14:18;;;;;;;;;;;;;;;;;;4950210;28;20301;-85
2021/09/04 14:16:47;;;;;;;;;;;;;;;;;;4953203;28;19926;-86
2021/09/04 14:19:15;;;;;;;;;;;;;;;;;;4975076;28;20297;-87
2021/09/04 14:21:45;;;;;;;;;;;;;;;;;;4950789;28;20266;-85
2021/09/04 14:24:13;;;;;;;;;;;;;;;;;;4951920;28;19932;-86
2021/09/04 14:26:42;;;;;;;;;;;;;;;;;;4950541;28;19926;-86
2021/09/04 14:29:10;;;;;;;;;;;;;;;;;;4946232;28;19926;-86
2021/09/04 14:31:38;;;;;;;;;;;;;;;;;;4951280;28;20271;-86
2021/09/04 14:34:06;;;;;;;;;;;;;;;;;;4951500;28;19952;-85
2021/09/04 14:36:35;;;;;;;;;;;;;;;;;;4949777;28;19926;-86
2021/09/04 14:39:04;;;;;;;;;;;;;;;;;;4966355;28;19929;-85
2021/09/04 14:41:33;;;;;;;;;;;;;;;;;;4957139;28;19937;-86
2021/09/04 14:44:01;;;;;;;;;;;;;;;;;;4945429;28;19926;-85
2021/09/04 14:46:30;;;;;;;;;;;;;;;;;;4947973;28;20407;-85
2021/09/04 14:48:58;;;;;;;;;;;;;;;;;;4939878;28;19938;-86
2021/09/04 14:51:27;;;;;;;;;;;;;;;;;;4943625;28;20316;-85
2021/09/04 14:53:56;;;;;;;;;;;;;;;;;;4956756;28;19926;-86
2021/09/04 14:56:26;;;;;;;;;;;;;;;;;;4943394;28;20323;-85
2021/09/04 14:58:55;;;;;;;;;;;;;;;;;;4959725;28;19934;-86
2021/09/04 15:01:23;;;;;;;;;;;;;;;;;;4960482;28;19933;-86
2021/09/04 15:03:52;;;;;;;;;;;;;;;;;;4944319;28;19925;-86
2021/09/04 15:06:20;;;;;;;;;;;;;;;;;;4944301;28;19925;-85
2021/09/04 15:08:50;;;;;;;;;;;;;;;;;;4967727;28;19926;-86
2021/09/04 15:11:18;;;;;;;;;;;;;;;;;;4948201;28;19930;-86
2021/09/04 15:13:50;;;;;;;;;;;;;;;;;;4956430;28;19933;-86
2021/09/04 15:16:18;;;;;;;;;;;;;;;;;;4954329;28;19929;-86
2021/09/04 15:18:47;;;;;;;;;;;;;;;;;;4952488;28;19933;-86
2021/09/04 15:21:15;;;;;;;;;;;;;;;;;;4944513;28;19926;-86
2021/09/04 15:23:43;;;;;;;;;;;;;;;;;;4950686;28;20423;-86
2021/09/04 15:26:12;;;;;;;;;;;;;;;;;;4950006;28;19941;-86
2021/09/04 15:28:40;;;;;;;;;;;;;;;;;;4962914;28;19937;-86
2021/09/04 15:31:10;;;;;;;;;;;;;;;;;;4947222;28;19936;-85
2021/09/04 15:33:39;;;;;;;;;;;;;;;;;;4968727;28;19926;-85
2021/09/04 15:36:07;;;;;;;;;;;;;;;;;;4969005;28;19925;-86
2021/09/04 15:38:35;;;;;;;;;;;;;;;;;;4940859;28;19934;-86
2021/09/04 15:41:04;;;;;;;;;;;;;;;;;;4960574;28;19926;-86
2021/09/04 15:43:33;;;;;;;;;;;;;;;;;;4948057;28;20377;-86
2021/09/04 15:46:04;;;;;;;;;;;;;;;;;;4958813;28;19926;-86
2021/09/04 15:48:34;;;;;;;;;;;;;;;;;;4983569;28;19926;-86
2021/09/04 15:51:02;;;;;;;;;;;;;;;;;;4956944;28;20010;-86
2021/09/04 15:53:30;;;;;;;;;;;;;;;;;;4993737;28;19926;-86
2021/09/04 15:55:59;;;;;;;;;;;;;;;;;;4965796;28;19941;-86
2021/09/04 15:58:27;;;;;;;;;;;;;;;;;;4943889;28;19926;-86
2021/09/04 16:00:55;;;;;;;;;;;;;;;;;;4942786;28;20435;-86
2021/09/04 16:03:24;;;;;;;;;;;;;;;;;;4954372;28;20300;-86
2021/09/04 16:05:54;;;;;;;;;;;;;;;;;;4952503;28;19926;-86
2021/09/04 16:08:22;;;;;;;;;;;;;;;;;;4951807;28;19934;-86
2021/09/04 16:10:50;;;;;;;;;;;;;;;;;;4947931;28;19933;-86
2021/09/04 16:13:19;;;;;;;;;;;;;;;;;;4944145;28;19937;-86
2021/09/04 16:15:47;;;;;;;;;;;;;;;;;;4948825;28;19966;-86
2021/09/04 16:18:16;;;;;;;;;;;;;;;;;;4939675;28;20411;-86
2021/09/04 16:20:44;;;;;;;;;;;;;;;;;;4943888;28;20297;-86
2021/09/04 16:23:14;;;;;;;;;;;;;;;;;;4935852;28;19954;-86
2021/09/04 16:25:42;;;;;;;;;;;;;;;;;;4933616;28;20424;-86
2021/09/04 16:28:11;;;;;;;;;;;;;;;;;;4937318;28;19933;-86
2021/09/04 16:30:39;;;;;;;;;;;;;;;;;;4940353;28;19926;-85
2021/09/04 16:33:08;;;;;;;;;;;;;;;;;;4941797;28;19941;-88
2021/09/04 16:35:36;;;;;;;;;;;;;;;;;;4949833;28;19926;-86
2021/09/04 16:38:05;;;;;;;;;;;;;;;;;;4975840;28;20388;-85
2021/09/04 16:40:34;;;;;;;;;;;;;;;;;;4951999;28;19926;-87
2021/09/04 16:43:02;;;;;;;;;;;;;;;;;;4941095;28;19933;-84
2021/09/04 16:45:31;;;;;;;;;;;;;;;;;;4954349;28;19926;-85
2021/09/04 16:47:59;;;;;;;;;;;;;;;;;;4961792;28;19926;-86
2021/09/04 16:50:28;;;;;;;;;;;;;;;;;;4947804;28;20309;-86
2021/09/04 16:52:57;;;;;;;;;;;;;;;;;;4941442;28;19930;-87
2021/09/04 16:55:25;;;;;;;;;;;;;;;;;;4948409;28;19949;-85
2021/09/04 16:57:55;;;;;;;;;;;;;;;;;;4947415;28;19937;-86
2021/09/04 17:00:23;;;;;;;;;;;;;;;;;;4947416;28;19926;-84